Time;durP1;ratioP1;P1;durP2;ratioP2;P2;SDS_P1;SDS_P2;PMS_P1;PMS_P2;Temp;Humidity;BMP_temperature;BMP_pressure;BME280_temperature;BME280_humidity;BME280_pressure;Samples;Min_cycle;Max_cycle;Signal;HPM_P1;HPM_P2
2021/12/15 00:01:32;;;;;;;100.72;43.55;;;9.90;99.90;;;;;;4917819;29;20043;-80
2021/12/15 00:03:59;;;;;;;93.68;44.30;;;9.90;99.90;;;;;;4914879;29;20031;-79
2021/12/15 00:06:25;;;;;;;100.28;45.28;;;9.90;99.90;;;;;;4899514;29;20033;-80
2021/12/15 00:08:56;;;;;;;114.13;49.88;;;9.90;99.90;;;;;;4915884;29;20483;-80
2021/12/15 00:11:32;;;;;;;109.28;49.00;;;9.80;99.90;;;;;;4894887;29;20032;-80
2021/12/15 00:14:00;;;;;;;88.65;41.83;;;9.90;99.90;;;;;;4880629;29;20039;-80
2021/12/15 00:16:30;;;;;;;92.53;44.05;;;9.80;99.90;;;;;;4915114;29;20087;-81
2021/12/15 00:18:57;;;;;;;104.38;48.65;;;9.80;99.90;;;;;;4891406;29;20032;-80
2021/12/15 00:21:23;;;;;;;104.65;44.60;;;9.80;99.90;;;;;;4890319;29;20407;-80
2021/12/15 00:23:50;;;;;;;100.43;44.88;;;9.80;99.90;;;;;;4880146;29;20566;-80
2021/12/15 00:26:18;;;;;;;102.53;46.47;;;9.90;99.90;;;;;;4918260;29;20383;-80
2021/12/15 00:28:46;;;;;;;92.35;43.95;;;9.80;99.90;;;;;;4890984;29;20040;-80
2021/12/15 00:31:12;;;;;;;96.68;45.85;;;9.90;99.90;;;;;;4880477;29;20040;-80
2021/12/15 00:33:41;;;;;;;101.70;47.20;;;9.80;99.90;;;;;;4895497;29;20036;-80
2021/12/15 00:36:09;;;;;;;87.20;42.60;;;9.80;99.90;;;;;;4895870;29;20027;-80
2021/12/15 00:38:35;;;;;;;95.18;42.75;;;9.80;99.90;;;;;;4883138;29;20515;-80
2021/12/15 00:41:03;;;;;;;92.15;42.60;;;9.80;99.90;;;;;;4876597;29;20067;-80
2021/12/15 00:43:30;;;;;;;95.30;43.38;;;9.80;99.90;;;;;;4886876;29;20043;-81
2021/12/15 00:45:56;;;;;;;104.22;44.92;;;9.90;99.90;;;;;;4885913;29;20047;-80
2021/12/15 00:48:23;;;;;;;102.07;45.50;;;9.80;99.90;;;;;;4873289;29;20618;-80
2021/12/15 00:50:50;;;;;;;100.30;46.38;;;9.80;99.90;;;;;;4889249;29;20032;-80
2021/12/15 00:53:16;;;;;;;107.50;45.97;;;9.80;99.90;;;;;;4878560;29;20047;-80
2021/12/15 00:55:43;;;;;;;101.80;43.97;;;9.80;99.90;;;;;;4882341;29;20787;-81
2021/12/15 00:58:11;;;;;;;102.10;44.97;;;9.80;99.90;;;;;;4895878;29;20188;-81
2021/12/15 01:00:43;;;;;;;87.30;43.95;;;9.80;99.90;;;;;;4879208;29;20047;-81
2021/12/15 01:03:10;;;;;;;103.03;46.08;;;9.80;99.90;;;;;;4897837;29;20423;-81
2021/12/15 01:05:40;;;;;;;98.20;44.83;;;9.80;99.90;;;;;;4902654;29;20044;-80
2021/12/15 01:08:11;;;;;;;116.82;48.65;;;9.80;99.90;;;;;;4919861;29;20036;-80
2021/12/15 01:21:38;;;;;;;122.78;49.05;;;9.80;99.90;;;;;;4892580;29;20044;-80
2021/12/15 01:24:05;;;;;;;111.95;50.08;;;9.80;99.90;;;;;;4882371;29;20048;-80
2021/12/15 01:26:32;;;;;;;98.80;45.35;;;9.80;99.90;;;;;;4923966;29;20475;-80
2021/12/15 01:28:59;;;;;;;103.18;45.97;;;9.80;99.90;;;;;;4890575;29;20392;-81
2021/12/15 01:31:26;;;;;;;107.45;47.75;;;9.80;99.90;;;;;;4920895;29;20039;-80
2021/12/15 01:33:52;;;;;;;107.40;47.45;;;9.80;99.90;;;;;;4882182;29;20400;-81
2021/12/15 01:36:21;;;;;;;106.45;45.30;;;9.80;99.90;;;;;;4895242;29;20033;-80
2021/12/15 01:38:48;;;;;;;97.20;44.13;;;9.80;99.90;;;;;;4887705;29;20060;-81
2021/12/15 01:41:21;;;;;;;99.70;44.42;;;9.80;99.90;;;;;;4892679;29;20393;-81
2021/12/15 01:46:56;;;;;;;96.28;43.95;;;9.80;99.90;;;;;;4919374;29;20047;-81
2021/12/15 01:49:46;;;;;;;104.85;45.90;;;9.80;99.90;;;;;;4913826;29;20047;-81
2021/12/15 01:52:17;;;;;;;114.88;48.80;;;9.80;99.90;;;;;;4886647;29;20051;-80
2021/12/15 01:54:48;;;;;;;102.53;45.03;;;9.80;99.90;;;;;;4912860;29;20032;-80
2021/12/15 01:57:15;;;;;;;104.60;44.67;;;9.80;99.90;;;;;;4894031;29;20036;-81
2021/12/15 01:59:44;;;;;;;100.63;45.72;;;9.80;99.90;;;;;;4869039;29;20032;-81
2021/12/15 02:02:11;;;;;;;105.50;44.33;;;9.80;99.90;;;;;;4915102;29;20028;-81
2021/12/15 02:04:37;;;;;;;120.35;49.47;;;9.80;99.90;;;;;;4917993;29;20071;-80
2021/12/15 02:07:07;;;;;;;113.07;48.45;;;9.80;99.90;;;;;;4890433;29;20407;-80
2021/12/15 02:12:09;;;;;;;108.15;47.60;;;9.80;99.90;;;;;;4869263;29;20473;-81
2021/12/15 02:14:35;;;;;;;96.38;43.95;;;9.80;99.90;;;;;;4871808;29;20056;-81
2021/12/15 02:17:02;;;;;;;103.65;44.33;;;9.80;99.90;;;;;;4867598;29;20040;-81
2021/12/15 02:19:29;;;;;;;107.68;45.58;;;9.80;99.90;;;;;;4875708;29;20044;-80
2021/12/15 02:21:59;;;;;;;106.85;47.33;;;9.80;99.90;;;;;;4890358;29;20044;-80
2021/12/15 02:24:26;;;;;;;116.90;50.88;;;9.80;99.90;;;;;;4899629;29;20040;-80
2021/12/15 02:26:58;;;;;;;109.38;45.90;;;9.80;99.90;;;;;;4895562;29;20036;-81
2021/12/15 02:29:25;;;;;;;102.60;48.00;;;9.80;99.90;;;;;;4894207;29;20044;-80
2021/12/15 02:31:59;;;;;;;111.18;47.08;;;9.80;99.90;;;;;;4898618;29;20505;-80
2021/12/15 02:37:17;;;;;;;114.40;49.13;;;9.80;99.90;;;;;;4882113;29;20036;-80
2021/12/15 02:39:48;;;;;;;102.38;44.00;;;9.80;99.90;;;;;;4916865;29;20047;-81
2021/12/15 02:42:15;;;;;;;102.40;45.88;;;9.80;99.90;;;;;;4901228;29;20036;-81
2021/12/15 02:44:43;;;;;;;108.10;45.83;;;9.80;99.90;;;;;;4916375;29;20043;-80
2021/12/15 02:47:18;;;;;;;115.18;48.92;;;9.80;99.90;;;;;;4900458;29;20028;-81
2021/12/15 02:49:44;;;;;;;95.63;44.25;;;9.80;99.90;;;;;;4913479;29;20032;-81
2021/12/15 02:52:11;;;;;;;107.07;48.22;;;9.80;99.90;;;;;;4881878;29;20372;-80
2021/12/15 02:54:38;;;;;;;97.60;43.45;;;9.80;99.90;;;;;;4888977;29;20040;-80
2021/12/15 02:57:10;;;;;;;85.65;41.38;;;9.80;99.90;;;;;;4895531;29;20115;-80
2021/12/15 03:00:17;;;;;;;114.03;47.58;;;9.80;99.90;;;;;;4867864;29;20434;-81
2021/12/15 03:08:16;;;;;;;94.32;43.63;;;9.80;99.90;;;;;;4885016;29;20058;-81
2021/12/15 03:16:20;;;;;;;96.63;42.83;;;9.70;99.90;;;;;;4896292;29;20035;-81
2021/12/15 03:18:47;;;;;;;89.18;43.10;;;9.80;99.90;;;;;;4895984;29;20470;-80
2021/12/15 03:21:21;;;;;;;106.68;45.88;;;9.80;99.90;;;;;;4893684;29;20528;-81
2021/12/15 03:23:54;;;;;;;98.88;43.50;;;9.80;99.90;;;;;;4920121;29;20040;-81
2021/12/15 03:26:25;;;;;;;;;;;9.80;99.90;;;;;;4922962;29;20059;-81
2021/12/15 03:34:38;;;;;;;84.00;37.97;;;9.80;99.90;;;;;;4905347;29;20051;-81
2021/12/15 03:37:22;;;;;;;88.30;39.83;;;9.70;99.90;;;;;;4889574;29;20545;-81
2021/12/15 03:39:53;;;;;;;102.90;43.58;;;9.80;99.90;;;;;;4885194;29;20805;-81
2021/12/15 03:42:25;;;;;;;99.65;42.47;;;9.80;99.90;;;;;;4876540;29;20059;-81
2021/12/15 03:44:52;;;;;;;100.53;41.60;;;9.70;99.90;;;;;;4889893;29;20459;-80
2021/12/15 03:47:25;;;;;;;105.40;47.05;;;9.80;99.90;;;;;;4890217;29;20033;-81
2021/12/15 03:49:55;;;;;;;100.38;45.17;;;9.70;99.90;;;;;;4888438;29;20411;-81
2021/12/15 03:52:22;;;;;;;97.93;41.83;;;9.70;99.90;;;;;;4911925;29;20056;-81
2021/12/15 03:54:49;;;;;;;97.82;43.72;;;9.70;99.90;;;;;;4913494;29;20483;-81
2021/12/15 03:57:16;;;;;;;104.43;43.05;;;9.80;99.90;;;;;;4909801;29;20515;-81
2021/12/15 03:59:44;;;;;;;82.53;39.90;;;9.80;99.90;;;;;;4912161;29;20950;-81
2021/12/15 04:02:13;;;;;;;94.53;40.10;;;9.70;99.90;;;;;;4896730;29;20036;-81
2021/12/15 04:04:41;;;;;;;88.28;38.03;;;9.70;99.90;;;;;;4916678;29;20391;-81
2021/12/15 04:07:09;;;;;;;103.70;42.95;;;9.70;99.90;;;;;;4896611;29;20419;-81
2021/12/15 04:09:36;;;;;;;101.05;42.63;;;9.70;99.90;;;;;;4880670;29;20506;-81
2021/12/15 04:12:03;;;;;;;105.10;43.90;;;9.80;99.90;;;;;;4892750;29;20036;-81
2021/12/15 04:14:41;;;;;;;102.80;44.38;;;9.80;99.90;;;;;;4896544;29;20040;-81
2021/12/15 04:17:17;;;;;;;99.03;42.92;;;9.70;99.90;;;;;;4892645;29;20044;-81
2021/12/15 04:19:44;;;;;;;94.88;39.15;;;9.80;99.90;;;;;;4872077;29;20032;-81
2021/12/15 04:22:10;;;;;;;105.00;43.10;;;9.70;99.90;;;;;;4893736;29;20032;-81
2021/12/15 04:24:37;;;;;;;87.07;39.33;;;9.80;99.90;;;;;;4910681;29;20044;-80
2021/12/15 04:27:04;;;;;;;100.03;41.03;;;9.80;99.90;;;;;;4917560;29;20454;-81
2021/12/15 04:29:30;;;;;;;96.13;38.75;;;9.80;99.90;;;;;;4887725;29;20039;-81
2021/12/15 04:32:06;;;;;;;96.25;38.65;;;9.80;99.90;;;;;;4890463;29;20036;-81
2021/12/15 04:34:33;;;;;;;95.50;41.60;;;9.80;99.90;;;;;;4909259;29;20040;-81
2021/12/15 04:36:59;;;;;;;92.65;39.60;;;9.80;99.90;;;;;;4894432;29;20047;-81
2021/12/15 04:39:28;;;;;;;85.78;39.60;;;9.80;99.90;;;;;;4877344;29;20067;-81
2021/12/15 04:41:57;;;;;;;103.25;41.65;;;9.80;99.90;;;;;;4910838;29;20044;-81
2021/12/15 04:44:27;;;;;;;90.38;38.63;;;9.80;99.90;;;;;;4908471;29;20380;-81
2021/12/15 04:47:06;;;;;;;104.10;42.83;;;9.80;99.90;;;;;;4912142;29;20388;-81
2021/12/15 04:49:37;;;;;;;105.80;43.92;;;9.80;99.90;;;;;;4869480;29;20044;-81
2021/12/15 04:52:05;;;;;;;101.53;43.33;;;9.80;99.90;;;;;;4889118;29;20039;-81
2021/12/15 04:54:32;;;;;;;113.05;44.80;;;9.70;99.90;;;;;;4908851;29;20102;-81
2021/12/15 04:57:01;;;;;;;97.35;40.25;;;9.80;99.90;;;;;;4899544;29;20043;-81
2021/12/15 04:59:28;;;;;;;95.82;39.97;;;9.80;99.90;;;;;;4892792;29;20044;-81
2021/12/15 05:01:54;;;;;;;91.95;39.67;;;9.80;99.90;;;;;;4909944;29;20111;-81
2021/12/15 05:04:21;;;;;;;94.38;40.70;;;9.80;99.90;;;;;;4920655;29;20055;-81
2021/12/15 05:06:48;;;;;;;99.80;43.40;;;9.80;99.90;;;;;;4919929;29;20036;-81
2021/12/15 05:09:15;;;;;;;98.65;44.53;;;9.80;99.90;;;;;;4890481;29;20554;-81
2021/12/15 05:11:42;;;;;;;94.78;40.10;;;9.80;99.90;;;;;;4905337;29;20035;-81
2021/12/15 05:14:08;;;;;;;99.28;40.28;;;9.80;99.90;;;;;;4904320;29;20395;-81
2021/12/15 05:16:35;;;;;;;96.22;40.30;;;9.80;99.90;;;;;;4915729;29;20407;-81
2021/12/15 05:19:01;;;;;;;91.75;38.60;;;9.70;99.90;;;;;;4899231;29;20047;-81
2021/12/15 05:21:30;;;;;;;102.45;41.63;;;9.80;99.90;;;;;;4920758;29;20035;-81
2021/12/15 05:24:01;;;;;;;102.15;40.42;;;9.80;99.90;;;;;;4893682;29;20036;-81
2021/12/15 05:26:30;;;;;;;89.95;38.65;;;9.80;99.90;;;;;;4859670;29;20532;-80
2021/12/15 05:28:56;;;;;;;84.93;37.47;;;9.80;99.90;;;;;;4893320;29;20081;-80
2021/12/15 05:31:23;;;;;;;99.43;40.28;;;9.80;99.90;;;;;;4910507;29;20041;-79
2021/12/15 05:33:49;;;;;;;95.15;39.95;;;9.80;99.90;;;;;;4881053;29;20044;-79
2021/12/15 05:36:16;;;;;;;96.15;41.50;;;9.80;99.90;;;;;;4878385;29;20033;-78
2021/12/15 05:38:42;;;;;;;85.68;38.78;;;9.80;99.90;;;;;;4891852;29;20130;-83
2021/12/15 05:41:09;;;;;;;101.90;43.88;;;9.80;99.90;;;;;;4881498;29;20047;-77
2021/12/15 05:43:36;;;;;;;102.43;42.47;;;9.80;99.90;;;;;;4907493;29;20040;-76
2021/12/15 05:46:03;;;;;;;94.80;40.03;;;9.80;99.90;;;;;;4877776;29;20400;-77
2021/12/15 05:48:30;;;;;;;92.43;40.90;;;9.80;99.90;;;;;;4910578;29;20048;-78
2021/12/15 05:50:57;;;;;;;88.57;39.33;;;9.80;99.90;;;;;;4884474;29;20036;-79
2021/12/15 05:53:23;;;;;;;96.40;40.97;;;9.80;99.90;;;;;;4892891;29;20396;-79
2021/12/15 05:55:51;;;;;;;101.57;42.60;;;9.80;99.90;;;;;;4889914;29;20048;-79
2021/12/15 05:58:17;;;;;;;98.70;43.47;;;9.80;99.90;;;;;;4892908;29;20036;-79
2021/12/15 06:00:46;;;;;;;94.13;41.65;;;9.90;99.90;;;;;;4874091;29;20399;-78
2021/12/15 06:03:13;;;;;;;105.07;43.05;;;9.80;99.90;;;;;;4907266;29;20065;-77
2021/12/15 06:05:40;;;;;;;110.72;47.08;;;9.90;99.90;;;;;;4916081;29;20055;-78
2021/12/15 06:08:07;;;;;;;100.22;42.40;;;9.90;99.90;;;;;;4895073;29;20040;-78
2021/12/15 06:10:35;;;;;;;107.93;45.35;;;9.80;99.90;;;;;;4888939;29;20036;-78
2021/12/15 06:13:04;;;;;;;114.20;46.25;;;9.80;99.90;;;;;;4888353;29;20583;-78
2021/12/15 06:15:31;;;;;;;104.20;42.22;;;9.80;99.90;;;;;;4894227;29;20032;-82
2021/12/15 06:18:04;;;;;;;104.82;43.60;;;9.80;99.90;;;;;;4915001;29;20040;-78
2021/12/15 06:20:32;;;;;;;102.40;43.03;;;9.90;99.90;;;;;;4882882;29;20044;-78
2021/12/15 06:23:05;;;;;;;111.65;43.00;;;9.90;99.90;;;;;;4895944;29;20036;-78
2021/12/15 06:25:31;;;;;;;100.32;44.13;;;9.90;99.90;;;;;;4912565;29;20055;-78
2021/12/15 06:27:58;;;;;;;100.90;43.80;;;9.90;99.90;;;;;;4913553;29;20020;-78
2021/12/15 06:30:24;;;;;;;107.03;44.05;;;9.80;99.90;;;;;;4858708;29;20058;-78
2021/12/15 06:32:51;;;;;;;106.03;44.92;;;9.90;99.90;;;;;;4884922;29;20068;-78
2021/12/15 06:35:17;;;;;;;115.72;48.00;;;9.90;99.90;;;;;;4881060;29;20036;-77
2021/12/15 06:37:44;;;;;;;103.20;43.90;;;9.90;99.90;;;;;;4920456;29;20035;-77
2021/12/15 06:40:11;;;;;;;91.93;39.38;;;9.80;99.90;;;;;;4914570;29;20419;-78
2021/12/15 06:42:40;;;;;;;92.28;41.38;;;9.90;99.90;;;;;;4887824;29;20024;-78
2021/12/15 06:45:12;;;;;;;106.45;44.88;;;9.90;99.90;;;;;;4892741;29;20043;-78
2021/12/15 06:58:31;;;;;;;98.18;41.58;;;9.90;99.90;;;;;;4915149;29;20070;-78
2021/12/15 07:01:03;;;;;;;100.13;42.55;;;9.90;99.90;;;;;;4899589;29;20396;-78
2021/12/15 07:03:30;;;;;;;100.13;43.30;;;9.90;99.90;;;;;;4896941;29;20036;-78
2021/12/15 07:05:56;;;;;;;112.07;44.45;;;9.90;99.90;;;;;;4916566;29;20036;-78
2021/12/15 07:08:27;;;;;;;99.47;42.85;;;9.90;99.90;;;;;;4908332;29;20040;-78
2021/12/15 07:10:54;;;;;;;104.15;42.25;;;9.90;99.90;;;;;;4914287;29;20032;-78
2021/12/15 07:13:21;;;;;;;104.00;44.03;;;9.90;99.90;;;;;;4911822;29;20040;-78
2021/12/15 07:15:58;;;;;;;105.57;44.65;;;9.90;99.90;;;;;;4896942;29;20036;-78
2021/12/15 07:18:40;;;;;;;96.10;40.72;;;9.90;99.90;;;;;;4911517;29;20381;-79
2021/12/15 07:21:10;;;;;;;108.80;44.25;;;9.90;99.90;;;;;;4883282;29;20028;-78
2021/12/15 07:23:38;;;;;;;103.30;42.03;;;9.90;99.90;;;;;;4909419;29;20047;-78
2021/12/15 07:26:05;;;;;;;107.80;41.85;;;9.90;99.90;;;;;;4914116;29;20047;-78
2021/12/15 07:28:32;;;;;;;103.43;41.17;;;9.90;99.90;;;;;;4886226;29;20746;-78
2021/12/15 07:30:59;;;;;;;92.75;41.45;;;9.90;99.90;;;;;;4876285;29;20043;-78
2021/12/15 07:33:25;;;;;;;108.20;42.15;;;10.00;99.90;;;;;;4894169;29;20048;-79
2021/12/15 07:35:52;;;;;;;106.90;42.45;;;9.90;99.90;;;;;;4898616;29;20483;-79
2021/12/15 07:38:19;;;;;;;115.47;43.15;;;10.00;99.90;;;;;;4893389;29;20051;-79
2021/12/15 07:40:47;;;;;;;118.78;45.45;;;10.00;99.90;;;;;;4914947;29;20565;-77
2021/12/15 07:43:23;;;;;;;119.22;46.60;;;9.90;99.90;;;;;;4914326;29;20032;-78
2021/12/15 07:45:55;;;;;;;109.90;41.78;;;10.00;99.90;;;;;;4915774;29;20024;-78
2021/12/15 07:48:24;;;;;;;107.57;42.13;;;10.00;99.90;;;;;;4915664;29;20505;-78
2021/12/15 07:50:54;;;;;;;122.07;45.72;;;10.00;99.90;;;;;;4877368;29;20019;-75
2021/12/15 07:53:21;;;;;;;118.22;43.28;;;10.00;99.90;;;;;;4893894;29;20032;-75
2021/12/15 07:55:49;;;;;;;117.07;42.80;;;10.00;99.90;;;;;;4909768;29;20379;-75
2021/12/15 07:58:20;;;;;;;114.57;43.03;;;10.00;99.90;;;;;;4863713;29;20037;-75
2021/12/15 08:00:49;;;;;;;114.13;41.85;;;10.00;99.90;;;;;;4893860;29;20036;-75
2021/12/15 08:03:16;;;;;;;118.57;43.15;;;10.00;99.90;;;;;;4913756;29;20036;-75
2021/12/15 08:05:45;;;;;;;121.30;44.47;;;10.10;99.90;;;;;;4880725;29;20059;-75
2021/12/15 08:08:11;;;;;;;123.85;42.95;;;10.00;99.90;;;;;;4893949;29;20032;-76
2021/12/15 08:10:38;;;;;;;131.25;43.10;;;10.00;99.90;;;;;;4877192;29;20043;-74
2021/12/15 08:13:05;;;;;;;128.05;43.80;;;10.00;99.90;;;;;;4911347;29;20499;-75
2021/12/15 08:15:31;;;;;;;145.55;46.10;;;10.00;99.90;;;;;;4864812;29;20396;-75
2021/12/15 08:17:58;;;;;;;140.18;46.10;;;10.00;99.90;;;;;;4867351;29;20522;-75
2021/12/15 08:20:29;;;;;;;135.43;44.53;;;10.00;99.90;;;;;;4884006;29;20041;-74
2021/12/15 08:22:55;;;;;;;148.98;46.13;;;10.00;99.90;;;;;;4902091;29;20032;-75
2021/12/15 08:25:22;;;;;;;128.95;43.67;;;10.00;99.90;;;;;;4913728;29;20047;-75
2021/12/15 08:27:51;;;;;;;142.25;45.47;;;10.00;99.90;;;;;;4924188;29;20032;-75
2021/12/15 08:30:23;;;;;;;124.47;44.15;;;10.00;99.90;;;;;;4912672;29;20039;-75
2021/12/15 08:32:53;;;;;;;138.07;43.25;;;10.00;99.90;;;;;;4891328;29;20417;-75
2021/12/15 08:35:23;;;;;;;126.93;41.38;;;10.00;99.90;;;;;;4900658;29;20035;-75
2021/12/15 08:37:50;;;;;;;113.22;41.95;;;10.10;99.90;;;;;;4919850;29;20867;-75
2021/12/15 08:40:18;;;;;;;134.88;42.85;;;10.10;99.90;;;;;;4894286;29;20067;-75
2021/12/15 08:42:45;;;;;;;142.45;44.70;;;10.10;99.90;;;;;;4916644;29;20039;-75
2021/12/15 08:45:12;;;;;;;125.70;41.67;;;10.10;99.90;;;;;;4906399;29;20127;-75
2021/12/15 08:47:39;;;;;;;135.00;43.58;;;10.10;99.90;;;;;;4875981;29;20181;-75
2021/12/15 08:50:10;;;;;;;143.40;46.58;;;10.10;99.90;;;;;;4893407;29;20076;-75
2021/12/15 08:52:36;;;;;;;159.13;50.35;;;10.20;99.90;;;;;;4908207;29;20040;-75
2021/12/15 08:55:06;;;;;;;128.75;45.45;;;10.20;99.90;;;;;;4916489;29;20032;-75
2021/12/15 08:57:33;;;;;;;154.70;51.15;;;10.20;99.90;;;;;;4919047;29;20035;-75
2021/12/15 08:59:59;;;;;;;182.80;53.72;;;10.20;99.90;;;;;;4886862;29;20040;-75
2021/12/15 09:02:26;;;;;;;145.90;47.38;;;10.20;99.90;;;;;;4887987;29;20488;-75
2021/12/15 09:04:52;;;;;;;161.82;52.78;;;10.20;99.90;;;;;;4879739;29;20045;-75
2021/12/15 09:07:19;;;;;;;143.88;46.38;;;10.20;99.90;;;;;;4873976;29;20099;-77
2021/12/15 09:09:45;;;;;;;137.43;46.13;;;10.10;99.90;;;;;;4884416;29;20479;-75
2021/12/15 09:12:12;;;;;;;144.48;45.80;;;10.20;99.90;;;;;;4918566;29;20493;-74
2021/12/15 09:14:38;;;;;;;151.73;49.28;;;10.20;99.90;;;;;;4918265;29;20036;-79
2021/12/15 09:17:05;;;;;;;143.85;47.05;;;10.20;99.90;;;;;;4879337;29;20036;-76
2021/12/15 09:19:32;;;;;;;156.80;49.40;;;10.20;99.90;;;;;;4875401;29;20052;-77
2021/12/15 09:21:58;;;;;;;140.05;47.22;;;10.20;99.90;;;;;;4900953;29;20044;-74
2021/12/15 09:24:25;;;;;;;125.85;45.70;;;10.30;99.90;;;;;;4918875;29;20039;-77
2021/12/15 09:26:54;;;;;;;137.85;46.53;;;10.30;99.90;;;;;;4886566;29;20051;-77
2021/12/15 09:29:20;;;;;;;138.65;46.03;;;10.30;99.90;;;;;;4910559;29;20032;-77
2021/12/15 09:31:47;;;;;;;124.57;44.00;;;10.30;99.90;;;;;;4899872;29;20039;-77
2021/12/15 09:34:17;;;;;;;140.80;45.28;;;10.30;99.90;;;;;;4918909;29;20479;-77
2021/12/15 09:36:50;;;;;;;141.73;47.13;;;10.30;99.90;;;;;;4897746;29;20036;-79
2021/12/15 09:39:20;;;;;;;146.57;46.15;;;10.30;99.90;;;;;;4899868;29;20055;-79
2021/12/15 09:41:48;;;;;;;119.82;42.58;;;10.40;99.90;;;;;;4893149;29;20043;-79
2021/12/15 09:44:19;;;;;;;140.30;44.33;;;10.30;99.90;;;;;;4899578;29;20028;-79
2021/12/15 10:03:30;;;;;;;147.05;48.33;;;10.50;99.90;;;;;;4896021;29;20506;-79
2021/12/15 10:19:53;;;;;;;124.38;45.40;;;10.50;99.90;;;;;;4889982;29;20040;-77
2021/12/15 10:22:38;;;;;;;134.40;49.30;;;10.50;99.90;;;;;;4905503;29;20039;-77
2021/12/15 10:25:15;;;;;;;119.55;47.75;;;10.50;99.90;;;;;;4906759;29;20039;-76
2021/12/15 10:27:47;;;;;;;136.20;50.85;;;10.60;99.90;;;;;;4904197;29;20043;-77
2021/12/15 10:30:26;;;;;;;123.43;48.53;;;10.60;99.90;;;;;;4908514;29;20059;-77
2021/12/15 10:33:02;;;;;;;136.23;51.63;;;10.60;99.90;;;;;;4898244;29;20032;-77
2021/12/15 10:35:33;;;;;;;116.82;46.03;;;10.60;99.90;;;;;;4898993;29;20040;-76
2021/12/15 10:38:24;;;;;;;114.85;46.17;;;10.60;99.90;;;;;;4895862;29;20055;-77
2021/12/15 10:40:59;;;;;;;121.90;47.70;;;10.60;99.90;;;;;;4907871;29;20052;-77
2021/12/15 10:43:42;;;;;;;118.28;47.78;;;10.70;99.90;;;;;;4893174;29;20489;-77
2021/12/15 10:46:24;;;;;;;99.28;43.15;;;10.70;99.90;;;;;;4917218;29;20375;-77
2021/12/15 10:48:55;;;;;;;119.95;47.67;;;10.70;99.90;;;;;;4914234;29;20365;-77
2021/12/15 10:51:54;;;;;;;113.85;49.72;;;10.70;99.90;;;;;;4893498;29;20051;-77
2021/12/15 10:54:29;;;;;;;112.63;47.85;;;10.70;99.90;;;;;;4914995;29;20032;-77
2021/12/15 10:56:59;;;;;;;105.40;45.92;;;10.70;99.90;;;;;;4913872;29;20558;-77
2021/12/15 10:59:33;;;;;;;107.65;48.92;;;10.80;99.90;;;;;;4910256;29;20047;-74
2021/12/15 11:02:12;;;;;;;120.05;51.75;;;10.80;99.90;;;;;;4892301;29;20051;-77
2021/12/15 11:05:01;;;;;;;109.35;47.53;;;10.90;99.90;;;;;;4878040;29;20403;-77
2021/12/15 11:07:44;;;;;;;104.35;47.25;;;10.90;99.90;;;;;;4892496;29;20501;-78
2021/12/15 11:10:25;;;;;;;92.97;43.40;;;11.00;99.90;;;;;;4902706;29;20071;-77
2021/12/15 11:13:02;;;;;;;99.00;47.47;;;11.00;99.90;;;;;;4885300;29;20518;-77
2021/12/15 11:15:50;;;;;;;105.20;47.22;;;11.00;99.90;;;;;;4900755;29;20032;-77
2021/12/15 11:18:23;;;;;;;101.75;45.13;;;11.10;99.90;;;;;;4881865;29;20032;-77
2021/12/15 11:20:51;;;;;;;95.63;45.22;;;11.10;99.90;;;;;;4885390;29;20039;-77
2021/12/15 11:23:20;;;;;;;96.10;46.58;;;11.20;99.90;;;;;;4908227;29;20032;-77
2021/12/15 11:25:53;;;;;;;97.00;46.85;;;11.20;99.90;;;;;;4889844;29;20043;-77
2021/12/15 11:28:30;;;;;;;97.57;47.08;;;11.20;99.90;;;;;;4889293;29;20032;-77
2021/12/15 11:31:20;;;;;;;101.07;49.53;;;11.20;99.90;;;;;;4911846;29;20040;-76
2021/12/15 11:33:49;;;;;;;93.10;43.95;;;11.20;99.90;;;;;;4913068;29;20040;-77
2021/12/15 11:36:25;;;;;;;94.57;47.70;;;11.30;99.90;;;;;;4912367;29;20043;-77
2021/12/15 11:39:00;;;;;;;84.47;43.45;;;11.20;99.90;;;;;;4906173;29;20041;-77
2021/12/15 11:41:31;;;;;;;105.57;50.00;;;11.30;99.90;;;;;;4892505;29;20055;-77
2021/12/15 11:44:04;;;;;;;83.10;44.22;;;11.30;99.90;;;;;;4890485;29;20031;-77
2021/12/15 11:47:00;;;;;;;90.90;46.17;;;11.30;99.90;;;;;;4888879;29;20048;-77
2021/12/15 11:49:31;;;;;;;82.75;43.70;;;11.30;99.90;;;;;;4886126;29;20147;-77
2021/12/15 11:52:03;;;;;;;86.57;45.58;;;11.30;99.90;;;;;;4916603;29;20149;-77
2021/12/15 11:54:34;;;;;;;85.50;46.30;;;11.30;99.90;;;;;;4878324;29;20040;-77
2021/12/15 11:57:23;;;;;;;84.70;45.60;;;11.40;99.90;;;;;;4887908;29;20047;-77
2021/12/15 11:59:53;;;;;;;79.15;44.15;;;11.40;99.90;;;;;;4853888;29;20045;-77
2021/12/15 12:02:21;;;;;;;73.32;42.33;;;11.40;99.90;;;;;;4912916;29;20472;-77
2021/12/15 12:04:47;;;;;;;72.72;41.15;;;11.30;99.90;;;;;;4900774;29;20056;-77
2021/12/15 12:07:35;;;;;;;81.75;44.55;;;11.30;99.90;;;;;;4922170;29;20051;-77
2021/12/15 12:10:11;;;;;;;76.75;44.05;;;11.30;99.90;;;;;;4906445;29;20047;-77
2021/12/15 12:12:47;;;;;;;76.38;42.42;;;11.20;99.90;;;;;;4900692;29;20033;-77
2021/12/15 12:15:16;;;;;;;69.07;41.15;;;11.20;99.90;;;;;;4899087;29;20494;-77
2021/12/15 12:17:46;;;;;;;75.45;41.55;;;11.20;99.90;;;;;;4873031;29;20052;-77
2021/12/15 12:20:25;;;;;;;66.70;39.78;;;11.20;99.90;;;;;;4905708;29;20040;-77
2021/12/15 12:22:54;;;;;;;63.30;36.85;;;11.10;99.90;;;;;;4911202;29;20043;-77
2021/12/15 12:25:35;;;;;;;71.88;40.38;;;11.10;99.90;;;;;;4911671;29;20380;-77
2021/12/15 12:28:04;;;;;;;63.90;37.53;;;11.10;99.90;;;;;;4896883;29;20039;-77
2021/12/15 12:30:38;;;;;;;69.82;41.58;;;11.10;99.90;;;;;;4875085;29;20044;-77
2021/12/15 12:33:08;;;;;;;67.07;39.70;;;11.10;99.90;;;;;;4883140;29;20037;-77
2021/12/15 12:35:47;;;;;;;66.55;38.53;;;11.10;99.90;;;;;;4895563;29;20043;-77
2021/12/15 12:38:21;;;;;;;68.53;39.45;;;11.20;99.90;;;;;;4891748;29;20405;-77
2021/12/15 12:41:01;;;;;;;67.18;37.47;;;11.20;99.90;;;;;;4893419;29;20052;-77
2021/12/15 12:43:36;;;;;;;66.93;40.08;;;11.20;99.90;;;;;;4912801;29;20047;-77
2021/12/15 12:46:33;;;;;;;62.72;40.08;;;11.30;99.90;;;;;;4913836;29;20036;-77
2021/12/15 13:00:50;;;;;;;60.05;37.65;;;11.50;99.90;;;;;;4854311;29;20052;-77
2021/12/15 13:03:30;;;;;;;54.03;35.28;;;11.50;99.90;;;;;;4877750;29;20040;-77
2021/12/15 13:06:04;;;;;;;51.92;34.67;;;11.50;99.90;;;;;;4883099;29;20044;-77
2021/12/15 13:08:47;;;;;;;49.67;33.50;;;11.50;99.90;;;;;;4902411;29;20051;-77
2021/12/15 13:11:18;;;;;;;53.88;35.30;;;11.50;99.90;;;;;;4883497;29;20492;-77
2021/12/15 13:13:57;;;;;;;52.50;34.90;;;11.50;99.90;;;;;;4893166;29;20036;-77
2021/12/15 13:16:38;;;;;;;53.38;34.28;;;11.50;99.90;;;;;;4912254;29;20028;-77
2021/12/15 13:19:14;;;;;;;45.90;32.22;;;11.50;99.90;;;;;;4889246;29;20028;-77
2021/12/15 13:21:52;;;;;;;49.58;31.23;;;11.50;99.90;;;;;;4889782;29;20374;-77
2021/12/15 13:30:24;;;;;;;37.92;28.13;;;11.50;99.90;;;;;;4889238;29;20517;-77
2021/12/15 13:32:51;;;;;;;39.42;28.73;;;11.50;99.90;;;;;;4921012;29;20862;-77
2021/12/15 13:35:27;;;;;;;38.17;26.33;;;11.50;99.90;;;;;;4887418;29;20040;-77
2021/12/15 13:37:59;;;;;;;38.53;27.17;;;11.50;99.90;;;;;;4892803;29;20020;-78
2021/12/15 13:40:49;;;;;;;38.17;24.42;;;11.50;99.90;;;;;;4915011;29;20043;-77
2021/12/15 13:43:34;;;;;;;34.10;22.83;;;11.50;99.90;;;;;;4919982;29;20482;-77
2021/12/15 13:46:01;;;;;;;29.67;20.52;;;11.50;99.90;;;;;;4902070;29;20039;-77
2021/12/15 13:48:58;;;;;;;33.03;22.80;;;11.40;99.90;;;;;;4889433;29;20056;-77
2021/12/15 13:51:55;;;;;;;30.90;19.83;;;11.40;99.90;;;;;;4878448;29;20057;-75
2021/12/15 13:54:33;;;;;;;31.40;21.08;;;11.40;99.90;;;;;;4896862;29;20031;-78
2021/12/15 13:57:11;;;;;;;34.72;22.83;;;11.40;99.90;;;;;;4873284;29;20408;-77
2021/12/15 13:59:53;;;;;;;32.60;20.90;;;11.40;99.90;;;;;;4913606;29;20505;-77
2021/12/15 14:02:22;;;;;;;25.65;18.67;;;11.40;99.90;;;;;;4868219;29;20396;-77
2021/12/15 14:05:15;;;;;;;31.65;19.23;;;11.40;99.90;;;;;;4917260;29;21565;-77
2021/12/15 14:07:48;;;;;;;23.83;18.05;;;11.40;99.90;;;;;;4889472;29;20037;-77
2021/12/15 14:10:17;;;;;;;26.73;18.17;;;11.40;99.90;;;;;;4885209;29;20048;-77
2021/12/15 14:12:49;;;;;;;30.33;19.08;;;11.30;99.90;;;;;;4893180;29;20515;-77
2021/12/15 14:15:40;;;;;;;28.92;17.95;;;11.30;99.90;;;;;;4888924;29;20032;-78
2021/12/15 14:18:31;;;;;;;29.38;18.48;;;11.30;99.90;;;;;;4893235;29;20403;-77
2021/12/15 14:21:18;;;;;;;26.92;18.35;;;11.30;99.90;;;;;;4891357;29;20874;-77
2021/12/15 14:23:51;;;;;;;25.15;17.27;;;11.30;99.90;;;;;;4904589;29;20403;-77